Time;durP1;ratioP1;P1;durP2;ratioP2;P2;SDS_P1;SDS_P2;PMS_P1;PMS_P2;Temp;Humidity;BMP_temperature;BMP_pressure;BME280_temperature;BME280_humidity;BME280_pressure;Samples;Min_cycle;Max_cycle;Signal;HPM_P1;HPM_P2
2021/08/07 00:00:46;;;;;;;25.80;7.28;;;;;13.90;101297.00;;;;5109381;28;20490;-81
2021/08/07 00:03:12;;;;;;;12.10;7.15;;;;;13.90;101300.00;;;;5109572;27;20106;-80
2021/08/07 00:05:39;;;;;;;15.57;7.57;;;;;13.90;101312.00;;;;5109238;28;20464;-78
2021/08/07 00:08:05;;;;;;;11.30;7.43;;;;;13.90;101337.00;;;;5109334;28;20057;-80
2021/08/07 00:10:32;;;;;;;16.58;7.07;;;;;13.80;101329.00;;;;5109344;27;20019;-82
2021/08/07 00:13:00;;;;;;;15.48;7.05;;;;;13.80;101307.00;;;;5111964;28;20555;-80
2021/08/07 00:15:27;;;;;;;12.65;7.45;;;;;13.80;101308.00;;;;5118003;28;20023;-78
2021/08/07 00:17:54;;;;;;;14.75;7.80;;;;;13.70;101320.00;;;;5116315;28;20386;-81
2021/08/07 00:20:20;;;;;;;11.05;7.45;;;;;13.80;101325.00;;;;5109074;28;20023;-78
2021/08/07 00:22:47;;;;;;;10.20;8.00;;;;;13.70;101311.00;;;;5109123;28;20062;-78
2021/08/07 00:25:14;;;;;;;12.80;7.35;;;;;13.70;101323.00;;;;5108943;28;20043;-80
2021/08/07 00:27:40;;;;;;;16.75;7.45;;;;;13.70;101328.00;;;;5108690;28;20028;-79
2021/08/07 00:30:08;;;;;;;14.82;8.60;;;;;13.70;101327.00;;;;5108579;28;20024;-78
2021/08/07 00:32:35;;;;;;;11.55;7.60;;;;;13.70;101327.00;;;;5108117;28;20687;-82
2021/08/07 00:35:02;;;;;;;13.48;7.35;;;;;13.70;101311.00;;;;5109188;28;20031;-77
2021/08/07 00:37:29;;;;;;;10.05;7.80;;;;;13.60;101330.00;;;;5108929;27;20034;-80
2021/08/07 00:39:56;;;;;;;15.52;7.95;;;;;13.60;101318.00;;;;5108022;28;20035;-78
2021/08/07 00:42:22;;;;;;;10.45;8.25;;;;;13.60;101338.00;;;;5108155;27;20038;-81
2021/08/07 00:44:49;;;;;;;10.73;7.60;;;;;13.50;101323.00;;;;5107707;28;20036;-79
2021/08/07 00:47:15;;;;;;;9.75;7.63;;;;;13.50;101335.00;;;;5107921;28;20486;-79
2021/08/07 00:49:43;;;;;;;15.82;7.68;;;;;13.50;101310.00;;;;5108309;28;20176;-79
2021/08/07 00:52:10;;;;;;;15.18;8.30;;;;;13.50;101344.00;;;;5108824;28;20055;-77
2021/08/07 00:54:39;;;;;;;11.88;8.13;;;;;13.50;101308.00;;;;5107938;28;20513;-79
2021/08/07 00:57:06;;;;;;;12.25;8.38;;;;;13.40;101307.00;;;;5107478;28;20134;-80
2021/08/07 00:59:32;;;;;;;16.23;7.97;;;;;13.40;101310.00;;;;5108118;28;20027;-79
2021/08/07 01:02:03;;;;;;;16.73;8.63;;;;;13.40;101324.00;;;;5108683;28;20070;-80
2021/08/07 01:04:40;;;;;;;15.02;8.15;;;;;13.40;101338.00;;;;5108161;28;20020;-81
2021/08/07 01:07:22;;;;;;;17.23;9.13;;;;;13.30;101328.00;;;;5106769;28;20076;-80
2021/08/07 01:10:12;;;;;;;16.05;8.95;;;;;13.30;101324.00;;;;5107589;28;20533;-80
2021/08/07 01:13:11;;;;;;;21.33;8.93;;;;;13.30;101319.00;;;;5108721;28;20028;-79
2021/08/07 01:15:41;;;;;;;23.23;9.18;;;;;13.40;101311.00;;;;5107850;28;20074;-81
2021/08/07 01:18:14;;;;;;;27.33;8.85;;;;;13.30;101322.00;;;;5107827;28;20505;-78
2021/08/07 01:20:47;;;;;;;21.60;9.10;;;;;13.30;101333.00;;;;5107332;27;20042;-79
2021/08/07 01:23:22;;;;;;;13.05;8.32;;;;;13.20;101334.00;;;;5107922;28;20042;-83
2021/08/07 01:25:57;;;;;;;17.00;7.97;;;;;13.20;101327.00;;;;5108388;28;20095;-81
2021/08/07 01:28:33;;;;;;;15.70;8.30;;;;;13.30;101315.00;;;;5107990;28;20359;-78
2021/08/07 01:31:03;;;;;;;20.08;7.95;;;;;13.10;101304.00;;;;5107557;28;20032;-79
2021/08/07 01:33:31;;;;;;;14.05;8.52;;;;;13.10;101313.00;;;;5108235;28;20035;-80
2021/08/07 01:35:59;;;;;;;14.23;9.20;;;;;13.20;101315.00;;;;5106668;28;20398;-79
2021/08/07 01:38:25;;;;;;;22.83;8.68;;;;;13.20;101317.00;;;;5107054;28;20063;-80
2021/08/07 01:40:52;;;;;;;27.67;8.65;;;;;13.10;101326.00;;;;5106422;28;20631;-80
2021/08/07 01:43:19;;;;;;;15.48;9.27;;;;;13.20;101308.00;;;;5106583;28;20111;-83
2021/08/07 01:45:47;;;;;;;18.05;9.32;;;;;13.20;101280.00;;;;5106301;28;20688;-80
2021/08/07 01:48:39;;;;;;;23.42;8.73;;;;;13.20;101294.00;;;;5107371;28;20085;-78
2021/08/07 01:51:13;;;;;;;12.65;8.60;;;;;13.10;101298.00;;;;5107766;28;20447;-78
2021/08/07 01:53:41;;;;;;;16.10;9.02;;;;;13.20;101317.00;;;;5107787;28;20080;-78
2021/08/07 01:56:22;;;;;;;12.65;8.32;;;;;13.20;101308.00;;;;5107522;28;20710;-78
2021/08/07 01:58:58;;;;;;;16.70;9.45;;;;;13.10;101317.00;;;;5106873;28;20030;-79
2021/08/07 02:01:25;;;;;;;16.60;9.07;;;;;13.20;101319.00;;;;5106452;28;20027;-81
2021/08/07 02:03:55;;;;;;;11.10;7.93;;;;;13.30;101321.00;;;;5107006;28;20031;-81
2021/08/07 02:06:22;;;;;;;12.43;8.07;;;;;13.20;101309.00;;;;5106349;28;20543;-79
2021/08/07 02:08:50;;;;;;;15.20;9.05;;;;;13.30;101293.00;;;;5107129;28;20035;-80
2021/08/07 02:11:18;;;;;;;16.67;8.50;;;;;13.30;101332.00;;;;5106966;28;20027;-81
2021/08/07 02:13:46;;;;;;;11.27;9.10;;;;;13.30;101311.00;;;;5106879;28;21256;-78
2021/08/07 02:16:14;;;;;;;11.27;8.57;;;;;13.20;101320.00;;;;5105584;27;20585;-78
2021/08/07 02:18:43;;;;;;;16.08;8.77;;;;;13.20;101293.00;;;;5107239;28;20031;-76
2021/08/07 02:21:12;;;;;;;14.63;8.80;;;;;13.20;101320.00;;;;5106653;28;20534;-77
2021/08/07 02:23:39;;;;;;;9.60;7.82;;;;;13.20;101319.00;;;;5108228;28;20023;-80
2021/08/07 02:26:08;;;;;;;9.77;7.80;;;;;13.10;101311.00;;;;5107162;28;20503;-78
2021/08/07 02:28:34;;;;;;;14.15;8.50;;;;;13.00;101294.00;;;;5106831;28;20027;-79
2021/08/07 02:31:04;;;;;;;11.43;7.30;;;;;12.90;101302.00;;;;5106890;28;20028;-80
2021/08/07 02:33:31;;;;;;;13.10;8.13;;;;;13.00;101308.00;;;;5106742;28;20063;-78
2021/08/07 02:35:59;;;;;;;13.60;7.70;;;;;13.00;101303.00;;;;5106488;28;20076;-80
2021/08/07 02:38:30;;;;;;;15.02;7.15;;;;;13.00;101288.00;;;;5106384;28;20038;-78
2021/08/07 02:40:59;;;;;;;10.50;7.63;;;;;13.00;101300.00;;;;5107427;28;20027;-80
2021/08/07 02:43:26;;;;;;;14.32;8.30;;;;;13.00;101283.00;;;;5107243;28;20097;-80
2021/08/07 02:45:54;;;;;;;12.63;7.63;;;;;13.00;101276.00;;;;5105898;28;20019;-81
2021/08/07 02:48:24;;;;;;;13.40;7.82;;;;;13.10;101282.00;;;;5107059;28;20027;-78
2021/08/07 02:50:50;;;;;;;11.18;7.30;;;;;13.10;101277.00;;;;5106590;28;20020;-78
2021/08/07 02:53:18;;;;;;;12.00;7.63;;;;;13.10;101290.00;;;;5106863;28;20439;-78
2021/08/07 02:55:45;;;;;;;7.43;6.65;;;;;13.00;101260.00;;;;5106681;28;20085;-81
2021/08/07 02:58:12;;;;;;;12.35;7.40;;;;;13.00;101285.00;;;;5106595;28;20078;-77
2021/08/07 03:00:39;;;;;;;12.52;7.65;;;;;13.00;101271.00;;;;5106659;28;20028;-78
2021/08/07 03:03:06;;;;;;;16.40;7.47;;;;;13.00;101273.00;;;;5106584;28;20452;-78
2021/08/07 03:05:32;;;;;;;14.30;6.90;;;;;12.90;101287.00;;;;5106736;28;20028;-80
2021/08/07 03:07:59;;;;;;;17.42;7.72;;;;;13.00;101257.00;;;;5106109;28;20096;-77
2021/08/07 03:10:26;;;;;;;8.30;6.95;;;;;12.90;101290.00;;;;5106930;28;20114;-78
2021/08/07 03:12:53;;;;;;;10.23;7.53;;;;;13.00;101283.00;;;;5106154;28;20073;-81
2021/08/07 03:15:23;;;;;;;9.20;7.20;;;;;13.00;101274.00;;;;5106300;28;20084;-80
2021/08/07 03:17:51;;;;;;;9.57;6.93;;;;;13.00;101266.00;;;;5107092;28;20030;-79
2021/08/07 03:20:18;;;;;;;9.02;7.07;;;;;12.90;101265.00;;;;5107613;28;20031;-78
2021/08/07 03:22:44;;;;;;;8.27;6.53;;;;;13.00;101267.00;;;;5107112;28;20048;-77
2021/08/07 03:25:12;;;;;;;13.68;6.63;;;;;13.00;101291.00;;;;5106272;28;20023;-79
2021/08/07 03:27:38;;;;;;;9.52;7.32;;;;;12.90;101274.00;;;;5105958;28;20042;-77
2021/08/07 03:30:06;;;;;;;8.55;6.97;;;;;12.80;101278.00;;;;5106607;28;20081;-80
2021/08/07 03:32:32;;;;;;;10.75;7.28;;;;;12.80;101257.00;;;;5106600;28;20028;-79
2021/08/07 03:34:59;;;;;;;11.55;6.88;;;;;12.80;101275.00;;;;5106806;28;20033;-79
2021/08/07 03:37:25;;;;;;;12.48;7.53;;;;;12.80;101279.00;;;;5105898;28;20055;-77
2021/08/07 03:39:52;;;;;;;10.38;7.13;;;;;12.80;101294.00;;;;5106218;28;20027;-78
2021/08/07 03:42:18;;;;;;;8.25;6.70;;;;;12.90;101294.00;;;;5105908;28;20022;-78
2021/08/07 03:44:45;;;;;;;11.73;7.07;;;;;12.90;101304.00;;;;5106725;28;20106;-77
2021/08/07 03:47:13;;;;;;;8.82;6.63;;;;;12.90;101282.00;;;;5106371;28;20023;-80
2021/08/07 03:49:40;;;;;;;9.50;7.22;;;;;12.90;101284.00;;;;5106636;28;20058;-79
2021/08/07 03:52:07;;;;;;;11.38;6.70;;;;;12.90;101290.00;;;;5109868;28;20362;-78
2021/08/07 03:54:33;;;;;;;9.00;6.75;;;;;12.90;101277.00;;;;5109297;28;20034;-77
2021/08/07 03:57:00;;;;;;;10.52;6.82;;;;;12.90;101256.00;;;;5109809;28;20114;-80
2021/08/07 03:59:27;;;;;;;14.40;6.78;;;;;12.80;101266.00;;;;5109763;28;20035;-77
2021/08/07 04:01:53;;;;;;;13.10;6.55;;;;;12.90;101283.00;;;;5110101;28;20032;-80
2021/08/07 04:04:20;;;;;;;9.90;6.97;;;;;13.00;101264.00;;;;5110040;28;20070;-81
2021/08/07 04:06:47;;;;;;;13.25;7.43;;;;;12.90;101271.00;;;;5110038;27;20020;-79
2021/08/07 04:09:13;;;;;;;9.05;7.03;;;;;13.00;101234.00;;;;5109713;28;20429;-78
2021/08/07 04:11:40;;;;;;;11.38;7.15;;;;;13.10;101254.00;;;;5109951;28;20788;-80
2021/08/07 04:14:06;;;;;;;9.82;6.68;;;;;12.90;101251.00;;;;5109358;28;20593;-79
2021/08/07 04:16:35;;;;;;;9.82;6.57;;;;;12.90;101248.00;;;;5108932;28;20500;-78
2021/08/07 04:19:01;;;;;;;12.90;6.72;;;;;12.80;101251.00;;;;5109580;28;20031;-81
2021/08/07 04:21:28;;;;;;;10.23;6.40;;;;;12.80;101259.00;;;;5108902;28;20039;-80
2021/08/07 04:23:54;;;;;;;9.27;6.90;;;;;12.80;101230.00;;;;5107528;28;20038;-81
2021/08/07 04:26:21;;;;;;;13.63;6.68;;;;;12.80;101250.00;;;;5109614;28;20023;-79
2021/08/07 04:28:48;;;;;;;10.85;7.18;;;;;12.80;101226.00;;;;5109611;28;20026;-77
2021/08/07 04:31:14;;;;;;;10.57;6.97;;;;;12.90;101235.00;;;;5109714;28;20027;-80
2021/08/07 04:33:41;;;;;;;8.15;6.85;;;;;13.00;101249.00;;;;5109177;27;20042;-79
2021/08/07 04:36:07;;;;;;;9.95;6.13;;;;;12.80;101229.00;;;;5108590;28;20393;-79
2021/08/07 04:38:34;;;;;;;7.88;6.18;;;;;12.90;101216.00;;;;5109110;28;20106;-78
2021/08/07 04:41:00;;;;;;;9.70;7.15;;;;;12.80;101207.00;;;;5109066;28;20532;-80
2021/08/07 04:43:28;;;;;;;12.35;6.78;;;;;12.70;101238.00;;;;5108935;28;20085;-77
2021/08/07 04:45:55;;;;;;;11.05;6.45;;;;;12.70;101211.00;;;;5107876;28;20509;-77
2021/08/07 04:48:21;;;;;;;8.40;6.40;;;;;12.70;101224.00;;;;5108750;28;20041;-77
2021/08/07 04:50:48;;;;;;;10.27;6.65;;;;;12.60;101214.00;;;;5106745;28;20360;-80
2021/08/07 04:53:15;;;;;;;7.90;6.43;;;;;12.60;101225.00;;;;5109012;28;20039;-78
2021/08/07 04:55:41;;;;;;;6.60;5.93;;;;;12.60;101210.00;;;;5108158;27;20035;-78
2021/08/07 04:58:08;;;;;;;8.50;6.97;;;;;12.60;101187.00;;;;5109156;28;20051;-79
2021/08/07 05:00:34;;;;;;;7.70;6.03;;;;;12.60;101189.00;;;;5108600;28;20073;-81
2021/08/07 05:03:01;;;;;;;9.77;5.88;;;;;12.60;101204.00;;;;5108253;28;20810;-78
2021/08/07 05:05:27;;;;;;;8.15;6.70;;;;;12.60;101171.00;;;;5107488;28;20031;-79
2021/08/07 05:07:54;;;;;;;8.23;6.45;;;;;12.60;101163.00;;;;5106605;28;20050;-78
2021/08/07 05:10:21;;;;;;;10.50;6.20;;;;;12.60;101171.00;;;;5108205;27;20046;-79
2021/08/07 05:12:48;;;;;;;6.47;5.88;;;;;12.60;101177.00;;;;5109336;27;20028;-78
2021/08/07 05:15:14;;;;;;;8.57;6.57;;;;;12.60;101195.00;;;;5107914;28;20028;-77
2021/08/07 05:17:41;;;;;;;8.98;6.60;;;;;12.40;101180.00;;;;5108175;28;20028;-80
2021/08/07 05:20:08;;;;;;;8.82;6.32;;;;;12.40;101167.00;;;;5107089;28;20020;-80
2021/08/07 05:22:35;;;;;;;7.80;6.60;;;;;12.50;101168.00;;;;5108060;28;20124;-78
2021/08/07 05:25:02;;;;;;;8.70;6.13;;;;;12.50;101169.00;;;;5108382;28;20039;-79
2021/08/07 05:27:29;;;;;;;10.15;5.75;;;;;12.50;101154.00;;;;5108340;28;20027;-78
2021/08/07 05:29:55;;;;;;;9.05;6.22;;;;;12.40;101126.00;;;;5106938;28;20027;-77
2021/08/07 05:32:22;;;;;;;7.38;6.25;;;;;12.50;101147.00;;;;5107736;28;20027;-78
2021/08/07 05:34:48;;;;;;;11.40;6.15;;;;;12.50;101127.00;;;;5108084;28;20078;-80
2021/08/07 05:37:15;;;;;;;15.27;7.13;;;;;12.40;101133.00;;;;5111138;28;20053;-78
2021/08/07 05:39:41;;;;;;;7.63;6.50;;;;;12.30;101149.00;;;;5111551;28;20072;-77
2021/08/07 05:42:08;;;;;;;7.25;6.55;;;;;12.40;101134.00;;;;5109670;28;20128;-79
2021/08/07 05:44:34;;;;;;;7.32;6.32;;;;;12.50;101145.00;;;;5107764;28;20079;-77
2021/08/07 05:47:01;;;;;;;10.52;6.63;;;;;12.40;101128.00;;;;5107922;28;20133;-79
2021/08/07 05:49:28;;;;;;;15.57;6.30;;;;;12.40;101132.00;;;;5108027;28;20046;-80
2021/08/07 05:51:54;;;;;;;12.95;6.40;;;;;12.50;101112.00;;;;5108181;28;20051;-78
2021/08/07 05:54:21;;;;;;;8.68;5.93;;;;;12.50;101111.00;;;;5107164;28;20107;-80
2021/08/07 05:56:48;;;;;;;10.55;6.07;;;;;12.50;101103.00;;;;5105965;28;20138;-77
2021/08/07 05:59:14;;;;;;;6.90;5.93;;;;;12.40;101108.00;;;;5107718;28;20076;-81
2021/08/07 06:01:41;;;;;;;9.07;6.53;;;;;12.30;101080.00;;;;5106175;28;20035;-77
2021/08/07 06:04:07;;;;;;;11.00;6.00;;;;;12.30;101095.00;;;;5108059;28;20459;-79
2021/08/07 06:06:34;;;;;;;10.15;6.03;;;;;12.30;101077.00;;;;5107329;28;20028;-79
2021/08/07 06:09:00;;;;;;;8.10;5.63;;;;;12.40;101060.00;;;;5107167;28;20487;-79
2021/08/07 06:11:27;;;;;;;12.20;6.80;;;;;12.40;101082.00;;;;5107879;28;20024;-77
2021/08/07 06:13:53;;;;;;;9.80;6.07;;;;;12.40;101087.00;;;;5107294;28;20034;-79
2021/08/07 06:16:20;;;;;;;10.07;6.43;;;;;12.40;101072.00;;;;5106918;28;20484;-77
2021/08/07 06:18:47;;;;;;;10.73;6.10;;;;;12.30;101087.00;;;;5107311;28;20036;-80
2021/08/07 06:21:14;;;;;;;12.68;6.32;;;;;12.30;101075.00;;;;5106513;28;20047;-79
2021/08/07 06:23:40;;;;;;;6.38;5.75;;;;;12.30;101080.00;;;;5107375;28;20028;-80
2021/08/07 06:26:08;;;;;;;8.00;6.15;;;;;12.40;101064.00;;;;5107363;28;20028;-78
2021/08/07 06:28:34;;;;;;;8.73;5.85;;;;;12.50;101044.00;;;;5107015;28;20024;-78
2021/08/07 06:31:01;;;;;;;6.32;5.35;;;;;12.50;101043.00;;;;5106780;28;20028;-80
2021/08/07 06:33:27;;;;;;;10.77;6.15;;;;;12.40;101067.00;;;;5107493;27;20106;-78
2021/08/07 06:35:54;;;;;;;11.20;5.97;;;;;12.40;101059.00;;;;5107058;28;20486;-79
2021/08/07 06:38:21;;;;;;;11.38;6.00;;;;;12.50;101068.00;;;;5107075;28;20494;-80
2021/08/07 06:40:47;;;;;;;6.32;5.40;;;;;12.60;101061.00;;;;5106944;28;20035;-80
2021/08/07 06:43:15;;;;;;;8.50;6.18;;;;;12.60;101059.00;;;;5106661;28;20021;-78
2021/08/07 06:45:41;;;;;;;6.07;5.45;;;;;12.60;101038.00;;;;5106449;28;20569;-80
2021/08/07 06:48:08;;;;;;;7.90;5.40;;;;;12.70;101070.00;;;;5106850;28;20494;-78
2021/08/07 06:50:34;;;;;;;8.75;5.20;;;;;12.60;101069.00;;;;5106526;28;20036;-78
2021/08/07 06:53:01;;;;;;;8.38;5.40;;;;;12.60;101047.00;;;;5105473;28;20028;-77
2021/08/07 06:55:27;;;;;;;8.32;5.47;;;;;12.60;101067.00;;;;5107004;28;20032;-77
2021/08/07 06:57:54;;;;;;;7.95;5.50;;;;;12.60;101050.00;;;;5106484;28;20398;-78
2021/08/07 07:00:21;;;;;;;10.00;5.35;;;;;12.60;101050.00;;;;5107135;28;20360;-78
2021/08/07 07:02:47;;;;;;;6.03;5.20;;;;;12.60;101049.00;;;;5105591;28;20039;-77
2021/08/07 07:05:14;;;;;;;7.38;5.57;;;;;12.60;101071.00;;;;5106499;28;20028;-79
2021/08/07 07:07:40;;;;;;;6.68;6.05;;;;;12.60;101072.00;;;;5106588;28;20481;-79
2021/08/07 07:10:09;;;;;;;6.15;5.35;;;;;12.60;101058.00;;;;5106307;28;20072;-80
2021/08/07 07:12:36;;;;;;;5.82;4.90;;;;;12.60;101070.00;;;;5106511;28;20036;-78
2021/08/07 07:15:03;;;;;;;9.50;5.45;;;;;12.60;101052.00;;;;5106698;28;20118;-77
2021/08/07 07:17:30;;;;;;;10.65;5.25;;;;;12.60;101065.00;;;;5106707;28;20499;-78
2021/08/07 07:19:58;;;;;;;7.68;5.10;;;;;12.70;101056.00;;;;5106988;28;20059;-79
2021/08/07 07:22:24;;;;;;;8.20;5.07;;;;;12.50;101052.00;;;;5106776;28;20043;-80
2021/08/07 07:24:51;;;;;;;5.88;5.13;;;;;12.50;101072.00;;;;5108535;28;20403;-81
2021/08/07 07:27:17;;;;;;;7.40;5.43;;;;;12.40;101042.00;;;;5108608;28;20583;-77
2021/08/07 07:29:44;;;;;;;7.40;5.28;;;;;12.30;101082.00;;;;5109547;28;20087;-79
2021/08/07 07:32:11;;;;;;;9.88;5.15;;;;;12.60;101087.00;;;;5110629;28;20107;-81
2021/08/07 07:34:38;;;;;;;8.45;4.95;;;;;12.50;101055.00;;;;5110628;28;20034;-78
2021/08/07 07:37:06;;;;;;;9.93;4.90;;;;;12.40;101059.00;;;;5110118;28;20031;-79
2021/08/07 07:39:33;;;;;;;9.52;5.13;;;;;12.50;101071.00;;;;5110332;28;20599;-79
2021/08/07 07:42:00;;;;;;;8.13;5.07;;;;;12.40;101069.00;;;;5109521;28;20051;-78
2021/08/07 07:44:27;;;;;;;6.22;5.00;;;;;12.30;101063.00;;;;5109673;28;20106;-80
2021/08/07 07:46:54;;;;;;;6.32;4.60;;;;;12.30;101062.00;;;;5110238;27;20039;-76
2021/08/07 07:49:20;;;;;;;9.48;5.70;;;;;12.30;101087.00;;;;5110560;28;20484;-79
2021/08/07 07:51:47;;;;;;;9.95;5.38;;;;;12.30;101059.00;;;;5109503;28;20023;-82
2021/08/07 07:54:13;;;;;;;11.40;5.40;;;;;12.40;101073.00;;;;5109558;28;20394;-81
2021/08/07 07:56:40;;;;;;;12.55;5.30;;;;;12.40;101048.00;;;;5109648;28;20429;-79
2021/08/07 07:59:06;;;;;;;6.15;4.68;;;;;12.40;101068.00;;;;5110152;28;20077;-80
2021/08/07 08:01:33;;;;;;;6.28;5.07;;;;;12.30;101045.00;;;;5109227;28;20108;-82
2021/08/07 08:03:59;;;;;;;12.80;4.75;;;;;12.20;101052.00;;;;5110380;28;20487;-81
2021/08/07 08:06:26;;;;;;;7.05;5.38;;;;;12.20;101079.00;;;;5109787;28;20032;-79
2021/08/07 08:08:53;;;;;;;6.88;4.78;;;;;12.00;101053.00;;;;5109059;28;20028;-81
2021/08/07 08:11:19;;;;;;;8.65;5.63;;;;;11.90;101062.00;;;;5108538;28;20395;-79
2021/08/07 08:13:46;;;;;;;11.20;5.30;;;;;11.90;101062.00;;;;5109762;28;20035;-78
2021/08/07 08:16:13;;;;;;;9.20;5.72;;;;;11.80;101051.00;;;;5109697;28;20031;-81
2021/08/07 08:18:39;;;;;;;10.45;5.70;;;;;11.70;101107.00;;;;5109294;28;20069;-79
2021/08/07 08:21:06;;;;;;;8.02;5.47;;;;;11.70;101052.00;;;;5109464;28;20043;-82
2021/08/07 08:23:32;;;;;;;11.48;5.90;;;;;11.70;101065.00;;;;5108340;28;20027;-79
2021/08/07 08:25:59;;;;;;;9.88;5.78;;;;;11.70;101081.00;;;;5108937;28;20027;-79
2021/08/07 08:28:26;;;;;;;6.70;5.60;;;;;11.70;101086.00;;;;5109420;28;20024;-80
2021/08/07 08:30:52;;;;;;;7.32;5.82;;;;;11.60;101066.00;;;;5108638;28;20475;-80
2021/08/07 08:33:19;;;;;;;9.05;4.95;;;;;11.60;101071.00;;;;5109580;27;20035;-81
2021/08/07 08:35:46;;;;;;;7.80;6.00;;;;;11.70;101104.00;;;;5108225;27;20124;-79
2021/08/07 08:38:13;;;;;;;9.52;6.22;;;;;11.60;101077.00;;;;5108763;28;20067;-77
2021/08/07 08:40:40;;;;;;;8.43;6.13;;;;;11.60;101083.00;;;;5109904;28;20032;-82
2021/08/07 08:43:07;;;;;;;7.50;5.85;;;;;11.60;101092.00;;;;5109304;28;20035;-79
2021/08/07 08:45:34;;;;;;;9.07;6.43;;;;;11.50;101088.00;;;;5109069;28;20057;-79
2021/08/07 08:48:01;;;;;;;6.93;5.88;;;;;11.60;101110.00;;;;5108419;28;20038;-80
2021/08/07 08:50:28;;;;;;;11.35;5.80;;;;;11.60;101099.00;;;;5108392;28;20851;-81
2021/08/07 08:52:57;;;;;;;7.82;5.72;;;;;11.60;101118.00;;;;5109217;28;20040;-79
2021/08/07 08:55:24;;;;;;;8.80;6.00;;;;;11.70;101088.00;;;;5108848;28;20032;-82
2021/08/07 08:57:51;;;;;;;9.07;6.97;;;;;11.60;101102.00;;;;5109061;28;20023;-81
2021/08/07 09:00:17;;;;;;;6.25;5.38;;;;;11.50;101118.00;;;;5108541;28;20023;-80
2021/08/07 09:02:44;;;;;;;7.05;5.40;;;;;11.50;101122.00;;;;5108499;28;20027;-78
2021/08/07 09:05:13;;;;;;;14.18;6.20;;;;;11.50;101124.00;;;;5108317;28;20031;-79
2021/08/07 09:07:42;;;;;;;9.90;5.80;;;;;11.40;101141.00;;;;5108954;28;20073;-79
2021/08/07 09:10:09;;;;;;;13.10;6.53;;;;;11.40;101147.00;;;;5108757;28;20386;-78
2021/08/07 09:13:17;;;;;;;9.77;6.50;;;;;11.40;101151.00;;;;5108910;28;20032;-79
2021/08/07 09:15:43;;;;;;;6.38;5.78;;;;;11.50;101145.00;;;;5106626;28;20036;-80
2021/08/07 09:18:10;;;;;;;14.43;6.32;;;;;11.50;101145.00;;;;5108266;28;20027;-78
2021/08/07 09:20:38;;;;;;;13.73;6.50;;;;;11.50;101134.00;;;;5107875;28;20032;-79
2021/08/07 09:23:06;;;;;;;8.10;6.30;;;;;11.40;101127.00;;;;5108125;27;20027;-78
2021/08/07 09:25:37;;;;;;;11.73;6.80;;;;;11.30;101136.00;;;;5107565;28;20402;-79
2021/08/07 09:28:05;;;;;;;9.13;6.18;;;;;11.30;101151.00;;;;5106824;28;20114;-79
2021/08/07 09:30:35;;;;;;;9.57;6.90;;;;;11.30;101135.00;;;;5108762;28;20874;-78
2021/08/07 09:33:20;;;;;;;8.57;6.18;;;;;11.30;101157.00;;;;5108038;28;20066;-81
2021/08/07 09:35:48;;;;;;;8.38;6.40;;;;;11.20;101163.00;;;;5108081;28;20587;-80
2021/08/07 09:38:30;;;;;;;12.77;6.60;;;;;11.10;101164.00;;;;5107276;28;20024;-78
2021/08/07 09:41:00;;;;;;;8.13;5.80;;;;;11.10;101155.00;;;;5106985;28;20115;-78
2021/08/07 09:43:32;;;;;;;12.60;6.47;;;;;11.10;101147.00;;;;5106983;28;20483;-81
2021/08/07 09:46:05;;;;;;;8.20;5.47;;;;;11.10;101164.00;;;;5107590;28;20062;-78
2021/08/07 09:48:47;;;;;;;10.73;6.47;;;;;11.00;101156.00;;;;5104886;28;20020;-79
2021/08/07 09:51:37;;;;;;;13.18;7.43;;;;;10.90;101155.00;;;;5106335;28;20028;-81
2021/08/07 09:54:12;;;;;;;8.48;6.07;;;;;11.00;101186.00;;;;5105175;28;20101;-79
2021/08/07 09:56:43;;;;;;;13.77;7.05;;;;;11.00;101163.00;;;;5105995;28;20402;-81
2021/08/07 09:59:10;;;;;;;9.05;8.13;;;;;10.90;101141.00;;;;5106653;28;20546;-79
2021/08/07 10:01:37;;;;;;;16.33;7.82;;;;;11.00;101166.00;;;;5106627;28;20019;-79
2021/08/07 10:04:10;;;;;;;11.98;7.57;;;;;11.00;101180.00;;;;5104414;27;20058;-78
2021/08/07 10:06:38;;;;;;;15.52;8.07;;;;;11.00;101191.00;;;;5107041;28;20084;-80
2021/08/07 10:09:05;;;;;;;15.40;8.20;;;;;10.90;101183.00;;;;5107212;28;20027;-79
2021/08/07 10:11:33;;;;;;;9.52;8.20;;;;;10.90;101175.00;;;;5106717;28;20032;-79
2021/08/07 10:14:00;;;;;;;14.50;8.32;;;;;10.90;101170.00;;;;5106859;28;20182;-78
2021/08/07 10:16:28;;;;;;;12.20;8.50;;;;;11.00;101183.00;;;;5107624;28;20184;-80
2021/08/07 10:18:56;;;;;;;15.63;8.57;;;;;11.10;101182.00;;;;5107297;28;20023;-80
2021/08/07 10:21:23;;;;;;;12.55;8.43;;;;;11.20;101184.00;;;;5106003;28;20495;-80
2021/08/07 10:23:54;;;;;;;12.75;8.80;;;;;11.20;101202.00;;;;5106421;28;20525;-77
2021/08/07 10:26:25;;;;;;;13.35;9.98;;;;;11.30;101222.00;;;;5108301;28;20035;-77
2021/08/07 10:28:59;;;;;;;10.77;7.53;;;;;11.30;101217.00;;;;5107685;28;20034;-78
2021/08/07 10:31:28;;;;;;;13.73;8.07;;;;;11.30;101213.00;;;;5107183;28;20024;-81
2021/08/07 10:33:59;;;;;;;12.45;9.73;;;;;11.50;101217.00;;;;5107573;28;20032;-79
2021/08/07 10:36:27;;;;;;;15.30;9.30;;;;;11.50;101219.00;;;;5106987;28;20054;-79
2021/08/07 10:38:54;;;;;;;15.18;9.93;;;;;11.60;101212.00;;;;5106296;28;20088;-79
2021/08/07 10:41:22;;;;;;;14.35;9.80;;;;;12.30;101176.00;;;;5106812;28;20027;-82
2021/08/07 10:43:53;;;;;;;11.77;9.23;;;;;12.80;101179.00;;;;5106830;28;20110;-78
2021/08/07 10:46:20;;;;;;;14.53;9.10;;;;;13.70;101137.00;;;;5106773;28;20074;-80
2021/08/07 10:48:51;;;;;;;9.90;8.90;;;;;14.30;101143.00;;;;5106873;28;20108;-79
2021/08/07 10:51:20;;;;;;;;;;;;;14.70;101180.00;;;;5107303;28;20020;-78
2021/08/07 10:53:48;;;;;;;9.45;7.10;;;;;14.60;101192.00;;;;5107300;28;19926;-80
2021/08/07 10:56:30;;;;;;;16.23;6.20;;;;;15.10;101205.00;;;;5107078;28;20118;-82
2021/08/07 10:59:17;;;;;;;11.10;5.60;;;;;15.70;101196.00;;;;5107120;28;20031;-80
2021/08/07 11:01:46;;;;;;;15.68;6.55;;;;;15.40;101174.00;;;;5108748;28;21127;-77
2021/08/07 11:04:22;;;;;;;9.05;4.97;;;;;15.90;101167.00;;;;5110919;28;20042;-82
2021/08/07 11:06:51;;;;;;;8.85;3.95;;;;;16.00;101174.00;;;;5114153;28;20035;-78
2021/08/07 11:09:21;;;;;;;6.00;4.13;;;;;16.70;101119.00;;;;5120281;28;20031;-78
2021/08/07 11:11:50;;;;;;;6.20;3.72;;;;;17.20;101112.00;;;;5111699;28;20157;-81
2021/08/07 11:14:26;;;;;;;8.88;3.85;;;;;18.40;101075.00;;;;5109378;28;20126;-83
2021/08/07 11:17:04;;;;;;;15.85;4.38;;;;;19.40;101066.00;;;;5111013;28;20027;-77
2021/08/07 11:22:40;;;;;;;8.93;4.03;;;;;20.60;101073.00;;;;5109325;28;20414;-76
2021/08/07 11:25:17;;;;;;;12.18;4.05;;;;;21.00;101064.00;;;;5109681;28;20379;-77
2021/08/07 11:30:21;;;;;;;6.85;3.90;;;;;21.70;101089.00;;;;5109746;27;20036;-79
2021/08/07 11:32:57;;;;;;;12.18;3.83;;;;;22.60;101065.00;;;;5108905;28;20428;-78
2021/08/07 11:38:25;;;;;;;10.45;3.55;;;;;22.90;101059.00;;;;5109276;28;20450;-79
2021/08/07 11:41:03;;;;;;;12.57;3.38;;;;;23.90;101049.00;;;;5109953;28;20034;-79
2021/08/07 11:43:41;;;;;;;7.43;3.13;;;;;24.10;101056.00;;;;5109254;28;20023;-77
2021/08/07 11:46:11;;;;;;;10.68;3.38;;;;;23.70;101073.00;;;;5109636;28;20032;-76
2021/08/07 11:48:48;;;;;;;15.85;3.30;;;;;24.70;101057.00;;;;5109179;28;20035;-76
2021/08/07 11:51:26;;;;;;;10.05;3.42;;;;;25.40;101064.00;;;;5109369;28;20063;-77
2021/08/07 11:53:53;;;;;;;18.67;4.53;;;;;25.20;101077.00;;;;5108977;28;20106;-78
2021/08/07 11:56:21;;;;;;;10.68;3.30;;;;;25.50;101043.00;;;;5109210;27;20106;-77
2021/08/07 11:58:50;;;;;;;16.30;3.42;;;;;25.60;101021.00;;;;5108999;28;20027;-76
2021/08/07 12:01:18;;;;;;;12.52;3.25;;;;;25.70;101027.00;;;;5109660;28;20029;-78
2021/08/07 12:03:50;;;;;;;13.40;2.75;;;;;26.50;101066.00;;;;5110082;28;20027;-78
2021/08/07 12:06:21;;;;;;;15.70;3.78;;;;;26.70;101055.00;;;;5109468;28;20032;-76
2021/08/07 12:08:49;;;;;;;11.07;2.70;;;;;26.90;101042.00;;;;5109511;28;20035;-76
2021/08/07 12:11:17;;;;;;;9.35;2.92;;;;;26.80;101032.00;;;;5107976;28;20169;-77
2021/08/07 12:13:52;;;;;;;20.05;4.55;;;;;27.00;101039.00;;;;5109425;28;20027;-77
2021/08/07 12:16:22;;;;;;;9.18;3.10;;;;;26.70;101024.00;;;;5109249;28;20502;-77
2021/08/07 12:18:52;;;;;;;5.83;2.80;;;;;27.10;101024.00;;;;5108522;28;20498;-76